sensor_id;sensor_type;location;lat;lon;timestamp;pressure;altitude;pressure_sealevel;temperature;humidity
71299;BME280;59083;47.974;21.722;2023-04-06T00:00:48;100480.78;;;1.51;58.29
71299;BME280;59083;47.974;21.722;2023-04-06T00:03:50;100491.41;;;1.49;58.42
71299;BME280;59083;47.974;21.722;2023-04-06T00:06:51;100480.44;;;1.44;58.61
71299;BME280;59083;47.974;21.722;2023-04-06T00:09:53;100482.94;;;1.46;58.70
71299;BME280;59083;47.974;21.722;2023-04-06T00:12:54;100484.84;;;1.44;58.61
71299;BME280;59083;47.974;21.722;2023-04-06T00:15:57;100478.78;;;1.43;59.07
71299;BME280;59083;47.974;21.722;2023-04-06T00:18:59;100480.13;;;1.38;59.46
71299;BME280;59083;47.974;21.722;2023-04-06T00:22:01;100472.44;;;1.46;58.99
71299;BME280;59083;47.974;21.722;2023-04-06T00:25:03;100479.88;;;1.41;59.56
71299;BME280;59083;47.974;21.722;2023-04-06T00:28:04;100474.63;;;1.41;59.33
71299;BME280;59083;47.974;21.722;2023-04-06T00:31:06;100464.63;;;1.35;59.69
71299;BME280;59083;47.974;21.722;2023-04-06T00:34:07;100467.19;;;1.46;59.67
71299;BME280;59083;47.974;21.722;2023-04-06T00:37:08;100459.72;;;1.41;59.56
71299;BME280;59083;47.974;21.722;2023-04-06T00:40:10;100454.13;;;1.35;60.17
71299;BME280;59083;47.974;21.722;2023-04-06T00:43:11;100449.12;;;1.32;60.36
71299;BME280;59083;47.974;21.722;2023-04-06T00:46:13;100448.88;;;1.35;60.17
71299;BME280;59083;47.974;21.722;2023-04-06T00:49:14;100447.78;;;1.37;60.39
71299;BME280;59083;47.974;21.722;2023-04-06T00:52:17;100443.34;;;1.38;60.35
71299;BME280;59083;47.974;21.722;2023-04-06T00:55:19;100443.34;;;1.38;60.42
71299;BME280;59083;47.974;21.722;2023-04-06T00:58:21;100445.31;;;1.36;60.46
71299;BME280;59083;47.974;21.722;2023-04-06T01:01:24;100439.53;;;1.42;60.51
71299;BME280;59083;47.974;21.722;2023-04-06T01:04:26;100436.97;;;1.31;60.40
71299;BME280;59083;47.974;21.722;2023-04-06T01:07:28;100443.87;;;1.32;60.26
71299;BME280;59083;47.974;21.722;2023-04-06T01:10:33;100432.69;;;1.30;60.38
71299;BME280;59083;47.974;21.722;2023-04-06T01:13:36;100441.19;;;1.43;60.51
71299;BME280;59083;47.974;21.722;2023-04-06T01:16:38;100432.84;;;1.38;60.53
71299;BME280;59083;47.974;21.722;2023-04-06T01:19:40;100438.72;;;1.41;60.10
71299;BME280;59083;47.974;21.722;2023-04-06T01:22:43;100430.94;;;1.40;60.40
71299;BME280;59083;47.974;21.722;2023-04-06T01:25:45;100433.84;;;1.37;60.14
71299;BME280;59083;47.974;21.722;2023-04-06T01:28:47;100422.34;;;1.38;60.12
71299;BME280;59083;47.974;21.722;2023-04-06T01:31:49;100422.88;;;1.32;60.39
71299;BME280;59083;47.974;21.722;2023-04-06T01:34:50;100437.22;;;1.28;60.35
71299;BME280;59083;47.974;21.722;2023-04-06T01:37:52;100420.25;;;1.32;60.74
71299;BME280;59083;47.974;21.722;2023-04-06T01:40:55;100416.22;;;1.28;60.59
71299;BME280;59083;47.974;21.722;2023-04-06T01:43:58;100406.00;;;1.24;60.65
71299;BME280;59083;47.974;21.722;2023-04-06T01:47:00;100399.06;;;1.23;60.55
71299;BME280;59083;47.974;21.722;2023-04-06T01:50:01;100405.84;;;1.26;60.83
71299;BME280;59083;47.974;21.722;2023-04-06T01:53:09;100396.63;;;1.32;60.73
71299;BME280;59083;47.974;21.722;2023-04-06T01:56:12;100390.25;;;1.24;60.86
71299;BME280;59083;47.974;21.722;2023-04-06T01:59:14;100384.28;;;1.22;61.10
71299;BME280;59083;47.974;21.722;2023-04-06T02:02:16;100386.50;;;1.27;61.43
71299;BME280;59083;47.974;21.722;2023-04-06T02:05:19;100379.34;;;1.29;61.01
71299;BME280;59083;47.974;21.722;2023-04-06T02:08:21;100382.03;;;1.39;60.87
71299;BME280;59083;47.974;21.722;2023-04-06T02:11:23;100378.19;;;1.43;61.03
71299;BME280;59083;47.974;21.722;2023-04-06T02:14:25;100382.91;;;1.49;60.75
71299;BME280;59083;47.974;21.722;2023-04-06T02:17:27;100378.50;;;1.49;60.66
71299;BME280;59083;47.974;21.722;2023-04-06T02:20:28;100379.53;;;1.37;61.37
71299;BME280;59083;47.974;21.722;2023-04-06T02:23:30;100367.66;;;1.43;61.21
71299;BME280;59083;47.974;21.722;2023-04-06T02:26:31;100373.75;;;1.43;61.23
71299;BME280;59083;47.974;21.722;2023-04-06T02:29:33;100366.16;;;1.40;61.73
71299;BME280;59083;47.974;21.722;2023-04-06T02:32:35;100370.78;;;1.48;61.20
71299;BME280;59083;47.974;21.722;2023-04-06T02:35:36;100366.63;;;1.55;61.30
71299;BME280;59083;47.974;21.722;2023-04-06T02:38:38;100364.72;;;1.57;61.02
71299;BME280;59083;47.974;21.722;2023-04-06T02:41:39;100367.47;;;1.55;61.50
71299;BME280;59083;47.974;21.722;2023-04-06T02:44:42;100365.38;;;1.49;61.41
71299;BME280;59083;47.974;21.722;2023-04-06T02:47:44;100363.34;;;1.53;61.77
71299;BME280;59083;47.974;21.722;2023-04-06T02:50:47;100360.94;;;1.50;61.61
71299;BME280;59083;47.974;21.722;2023-04-06T02:53:48;100370.03;;;1.66;61.33
71299;BME280;59083;47.974;21.722;2023-04-06T02:56:50;100346.78;;;1.62;61.81
71299;BME280;59083;47.974;21.722;2023-04-06T02:59:51;100356.44;;;1.61;61.45
71299;BME280;59083;47.974;21.722;2023-04-06T03:02:53;100352.47;;;1.67;61.40
71299;BME280;59083;47.974;21.722;2023-04-06T03:05:55;100346.13;;;1.70;61.25
71299;BME280;59083;47.974;21.722;2023-04-06T03:09:00;100344.47;;;1.69;61.32
71299;BME280;59083;47.974;21.722;2023-04-06T03:12:01;100346.69;;;1.73;61.02
71299;BME280;59083;47.974;21.722;2023-04-06T03:15:05;100348.16;;;1.66;61.29
71299;BME280;59083;47.974;21.722;2023-04-06T03:18:06;100342.16;;;1.75;61.05
71299;BME280;59083;47.974;21.722;2023-04-06T03:21:09;100345.31;;;1.79;60.93
71299;BME280;59083;47.974;21.722;2023-04-06T03:24:10;100337.66;;;1.66;61.57
71299;BME280;59083;47.974;21.722;2023-04-06T03:27:12;100354.84;;;1.70;61.24
71299;BME280;59083;47.974;21.722;2023-04-06T03:30:15;100352.34;;;1.69;60.80
71299;BME280;59083;47.974;21.722;2023-04-06T03:33:18;100336.81;;;1.56;61.38
71299;BME280;59083;47.974;21.722;2023-04-06T03:36:21;100345.81;;;1.63;60.75
71299;BME280;59083;47.974;21.722;2023-04-06T03:39:23;100346.97;;;1.70;60.54
71299;BME280;59083;47.974;21.722;2023-04-06T03:42:24;100341.41;;;1.63;60.16
71299;BME280;59083;47.974;21.722;2023-04-06T03:45:26;100334.59;;;1.61;60.42
71299;BME280;59083;47.974;21.722;2023-04-06T03:48:27;100334.34;;;1.64;60.71
71299;BME280;59083;47.974;21.722;2023-04-06T03:51:28;100335.47;;;1.71;60.20
71299;BME280;59083;47.974;21.722;2023-04-06T03:54:30;100343.19;;;1.63;60.38
71299;BME280;59083;47.974;21.722;2023-04-06T03:57:31;100339.34;;;1.67;59.59
71299;BME280;59083;47.974;21.722;2023-04-06T04:00:32;100338.66;;;1.65;59.53
71299;BME280;59083;47.974;21.722;2023-04-06T04:03:34;100339.91;;;1.71;59.60
71299;BME280;59083;47.974;21.722;2023-04-06T04:06:35;100344.63;;;1.77;59.44
71299;BME280;59083;47.974;21.722;2023-04-06T04:09:37;100351.69;;;1.76;59.46
71299;BME280;59083;47.974;21.722;2023-04-06T04:12:38;100352.03;;;1.62;59.68
71299;BME280;59083;47.974;21.722;2023-04-06T04:15:40;100348.87;;;1.68;59.55
71299;BME280;59083;47.974;21.722;2023-04-06T04:18:41;100350.88;;;1.55;60.10
71299;BME280;59083;47.974;21.722;2023-04-06T04:21:45;100324.59;;;1.45;60.64
71299;BME280;59083;47.974;21.722;2023-04-06T04:24:47;100364.81;;;1.46;62.09
71299;BME280;59083;47.974;21.722;2023-04-06T04:27:49;100364.56;;;1.07;68.84
71299;BME280;59083;47.974;21.722;2023-04-06T04:30:52;100368.03;;;0.76;73.28
71299;BME280;59083;47.974;21.722;2023-04-06T04:33:54;100356.38;;;0.69;75.22
71299;BME280;59083;47.974;21.722;2023-04-06T04:36:57;100365.94;;;0.59;76.56
71299;BME280;59083;47.974;21.722;2023-04-06T04:40:00;100368.94;;;0.54;78.46
71299;BME280;59083;47.974;21.722;2023-04-06T04:43:04;100374.53;;;0.61;78.55
71299;BME280;59083;47.974;21.722;2023-04-06T04:46:06;100385.44;;;0.45;79.81
71299;BME280;59083;47.974;21.722;2023-04-06T04:49:08;100375.50;;;0.49;80.76
71299;BME280;59083;47.974;21.722;2023-04-06T04:52:09;100362.81;;;0.33;83.03
71299;BME280;59083;47.974;21.722;2023-04-06T04:55:13;100368.44;;;0.06;85.26
71299;BME280;59083;47.974;21.722;2023-04-06T04:58:16;100371.06;;;-0.05;88.07
71299;BME280;59083;47.974;21.722;2023-04-06T05:01:18;100366.31;;;0.11;89.01
71299;BME280;59083;47.974;21.722;2023-04-06T05:04:20;100366.53;;;0.08;88.64
71299;BME280;59083;47.974;21.722;2023-04-06T05:07:22;100361.78;;;-0.09;87.29
71299;BME280;59083;47.974;21.722;2023-04-06T05:10:24;100368.44;;;0.06;89.17
71299;BME280;59083;47.974;21.722;2023-04-06T05:13:26;100383.09;;;0.09;87.59
71299;BME280;59083;47.974;21.722;2023-04-06T05:16:28;100374.19;;;0.00;89.56
71299;BME280;59083;47.974;21.722;2023-04-06T05:19:30;100377.97;;;0.07;88.75
71299;BME280;59083;47.974;21.722;2023-04-06T05:22:31;100379.19;;;-0.30;92.85
71299;BME280;59083;47.974;21.722;2023-04-06T05:25:33;100376.31;;;-0.27;93.24
71299;BME280;59083;47.974;21.722;2023-04-06T05:28:35;100380.97;;;-0.31;94.33
71299;BME280;59083;47.974;21.722;2023-04-06T05:31:37;100381.31;;;-0.35;95.21
71299;BME280;59083;47.974;21.722;2023-04-06T05:34:39;100379.84;;;-0.51;95.90
71299;BME280;59083;47.974;21.722;2023-04-06T05:37:41;100377.84;;;-0.47;97.07
71299;BME280;59083;47.974;21.722;2023-04-06T05:40:44;100376.53;;;-0.53;96.59
71299;BME280;59083;47.974;21.722;2023-04-06T05:43:46;100387.59;;;-0.49;99.19
71299;BME280;59083;47.974;21.722;2023-04-06T05:46:47;100389.63;;;-0.42;98.68
71299;BME280;59083;47.974;21.722;2023-04-06T05:49:49;100383.91;;;-0.58;99.48
71299;BME280;59083;47.974;21.722;2023-04-06T05:52:51;100396.03;;;-0.57;99.85
71299;BME280;59083;47.974;21.722;2023-04-06T05:55:54;100391.53;;;-0.44;99.86
71299;BME280;59083;47.974;21.722;2023-04-06T05:58:56;100385.91;;;-0.50;100.00
71299;BME280;59083;47.974;21.722;2023-04-06T06:01:57;100381.53;;;-0.50;100.00
71299;BME280;59083;47.974;21.722;2023-04-06T06:04:59;100393.41;;;-0.46;100.00
71299;BME280;59083;47.974;21.722;2023-04-06T06:08:01;100382.00;;;-0.56;100.00
71299;BME280;59083;47.974;21.722;2023-04-06T06:11:03;100378.31;;;-0.64;100.00
71299;BME280;59083;47.974;21.722;2023-04-06T06:14:05;100383.91;;;-0.58;100.00
71299;BME280;59083;47.974;21.722;2023-04-06T06:17:08;100377.69;;;-0.57;100.00
71299;BME280;59083;47.974;21.722;2023-04-06T06:20:10;100388.19;;;-0.46;100.00
71299;BME280;59083;47.974;21.722;2023-04-06T06:23:11;100384.88;;;-0.48;100.00
71299;BME280;59083;47.974;21.722;2023-04-06T06:26:13;100374.88;;;-0.54;100.00
71299;BME280;59083;47.974;21.722;2023-04-06T06:29:14;100374.12;;;-0.56;100.00
71299;BME280;59083;47.974;21.722;2023-04-06T06:32:16;100373.44;;;-0.58;100.00
71299;BME280;59083;47.974;21.722;2023-04-06T06:35:19;100371.06;;;-0.50;100.00
71299;BME280;59083;47.974;21.722;2023-04-06T06:38:21;100366.06;;;-0.53;100.00
71299;BME280;59083;47.974;21.722;2023-04-06T06:41:22;100365.94;;;-0.51;100.00
71299;BME280;59083;47.974;21.722;2023-04-06T06:44:24;100362.63;;;-0.53;100.00
71299;BME280;59083;47.974;21.722;2023-04-06T06:47:26;100360.59;;;-0.50;100.00
71299;BME280;59083;47.974;21.722;2023-04-06T06:50:27;100347.97;;;-0.45;100.00
71299;BME280;59083;47.974;21.722;2023-04-06T06:53:29;100368.44;;;-0.27;100.00
71299;BME280;59083;47.974;21.722;2023-04-06T06:56:30;100363.22;;;-0.38;100.00
71299;BME280;59083;47.974;21.722;2023-04-06T06:59:32;100370.59;;;-0.21;100.00
71299;BME280;59083;47.974;21.722;2023-04-06T07:02:35;100366.66;;;-0.16;100.00
71299;BME280;59083;47.974;21.722;2023-04-06T07:05:37;100362.06;;;-0.23;100.00
71299;BME280;59083;47.974;21.722;2023-04-06T07:08:38;100369.91;;;-0.12;100.00
71299;BME280;59083;47.974;21.722;2023-04-06T07:11:40;100369.88;;;0.10;100.00
71299;BME280;59083;47.974;21.722;2023-04-06T07:14:41;100369.53;;;0.04;100.00
71299;BME280;59083;47.974;21.722;2023-04-06T07:17:42;100370.34;;;0.15;100.00
71299;BME280;59083;47.974;21.722;2023-04-06T07:20:46;100377.28;;;0.05;100.00
71299;BME280;59083;47.974;21.722;2023-04-06T07:23:49;100376.91;;;-0.02;100.00
71299;BME280;59083;47.974;21.722;2023-04-06T07:26:51;100384.28;;;0.16;100.00
71299;BME280;59083;47.974;21.722;2023-04-06T07:29:53;100374.38;;;0.19;100.00
71299;BME280;59083;47.974;21.722;2023-04-06T07:32:55;100370.09;;;0.07;100.00
71299;BME280;59083;47.974;21.722;2023-04-06T07:35:57;100375.25;;;-0.03;100.00
71299;BME280;59083;47.974;21.722;2023-04-06T07:38:59;100371.78;;;0.08;100.00
71299;BME280;59083;47.974;21.722;2023-04-06T07:42:01;100373.94;;;0.03;100.00
71299;BME280;59083;47.974;21.722;2023-04-06T07:45:03;100377.62;;;-0.11;100.00
71299;BME280;59083;47.974;21.722;2023-04-06T07:48:05;100379.44;;;0.00;100.00
71299;BME280;59083;47.974;21.722;2023-04-06T07:51:06;100368.69;;;-0.19;100.00
71299;BME280;59083;47.974;21.722;2023-04-06T07:54:09;100375.59;;;0.04;100.00
71299;BME280;59083;47.974;21.722;2023-04-06T07:57:10;100373.19;;;0.12;100.00
71299;BME280;59083;47.974;21.722;2023-04-06T08:00:12;100378.09;;;0.17;100.00
71299;BME280;59083;47.974;21.722;2023-04-06T08:03:14;100369.75;;;0.23;100.00
71299;BME280;59083;47.974;21.722;2023-04-06T08:06:15;100372.03;;;0.05;100.00
71299;BME280;59083;47.974;21.722;2023-04-06T08:09:17;100367.75;;;-0.07;100.00
71299;BME280;59083;47.974;21.722;2023-04-06T08:12:18;100371.31;;;-0.08;100.00
71299;BME280;59083;47.974;21.722;2023-04-06T08:15:20;100366.66;;;-0.05;100.00
71299;BME280;59083;47.974;21.722;2023-04-06T08:18:21;100374.62;;;0.16;100.00
71299;BME280;59083;47.974;21.722;2023-04-06T08:21:22;100365.00;;;-0.06;100.00
71299;BME280;59083;47.974;21.722;2023-04-06T08:24:23;100362.03;;;-0.01;100.00
71299;BME280;59083;47.974;21.722;2023-04-06T08:27:25;100374.19;;;0.00;100.00
71299;BME280;59083;47.974;21.722;2023-04-06T08:30:27;100369.66;;;-0.09;100.00
71299;BME280;59083;47.974;21.722;2023-04-06T08:33:28;100378.69;;;-0.02;100.00
71299;BME280;59083;47.974;21.722;2023-04-06T08:36:30;100376.56;;;-0.08;100.00
71299;BME280;59083;47.974;21.722;2023-04-06T08:39:32;100373.94;;;-0.08;100.00
71299;BME280;59083;47.974;21.722;2023-04-06T08:42:39;100373.81;;;0.05;100.00
71299;BME280;59083;47.974;21.722;2023-04-06T08:45:41;100371.88;;;0.18;100.00
71299;BME280;59083;47.974;21.722;2023-04-06T08:48:43;100377.03;;;0.08;100.00
71299;BME280;59083;47.974;21.722;2023-04-06T08:51:45;100359.88;;;0.04;100.00
71299;BME280;59083;47.974;21.722;2023-04-06T08:54:47;100368.69;;;0.14;100.00
71299;BME280;59083;47.974;21.722;2023-04-06T08:57:50;100368.03;;;0.44;100.00
71299;BME280;59083;47.974;21.722;2023-04-06T09:00:54;100360.31;;;0.31;100.00
71299;BME280;59083;47.974;21.722;2023-04-06T09:03:58;100368.87;;;0.45;100.00
71299;BME280;59083;47.974;21.722;2023-04-06T09:07:00;100364.47;;;0.77;100.00
71299;BME280;59083;47.974;21.722;2023-04-06T09:10:02;100364.12;;;1.02;100.00
71299;BME280;59083;47.974;21.722;2023-04-06T09:13:07;100356.88;;;1.15;100.00
71299;BME280;59083;47.974;21.722;2023-04-06T09:16:09;100357.81;;;1.14;100.00
71299;BME280;59083;47.974;21.722;2023-04-06T09:19:11;100366.75;;;1.23;100.00
71299;BME280;59083;47.974;21.722;2023-04-06T09:22:12;100371.00;;;1.45;99.56
71299;BME280;59083;47.974;21.722;2023-04-06T09:25:19;100364.38;;;1.41;99.72
71299;BME280;59083;47.974;21.722;2023-04-06T09:28:21;100362.31;;;1.23;100.00
71299;BME280;59083;47.974;21.722;2023-04-06T09:31:24;100357.59;;;1.17;100.00
71299;BME280;59083;47.974;21.722;2023-04-06T09:34:26;100354.81;;;1.40;99.20
71299;BME280;59083;47.974;21.722;2023-04-06T09:37:27;100348.03;;;1.37;99.39
71299;BME280;59083;47.974;21.722;2023-04-06T09:40:29;100354.75;;;1.09;99.48
71299;BME280;59083;47.974;21.722;2023-04-06T09:43:30;100356.16;;;1.34;98.53
71299;BME280;59083;47.974;21.722;2023-04-06T09:46:45;100354.44;;;1.03;98.40
71299;BME280;59083;47.974;21.722;2023-04-06T09:49:47;100347.12;;;1.27;99.05
71299;BME280;59083;47.974;21.722;2023-04-06T09:52:54;100359.47;;;1.57;98.22
71299;BME280;59083;47.974;21.722;2023-04-06T09:56:02;100344.25;;;1.51;97.53
71299;BME280;59083;47.974;21.722;2023-04-06T09:59:09;100355.09;;;1.67;96.06
71299;BME280;59083;47.974;21.722;2023-04-06T10:02:20;100356.44;;;1.61;96.87
71299;BME280;59083;47.974;21.722;2023-04-06T10:08:33;100349.66;;;1.89;97.04
71299;BME280;59083;47.974;21.722;2023-04-06T10:11:35;100357.19;;;2.03;95.62
71299;BME280;59083;47.974;21.722;2023-04-06T10:14:37;100350.69;;;2.07;95.08
71299;BME280;59083;47.974;21.722;2023-04-06T10:17:38;100345.87;;;2.22;95.65
71299;BME280;59083;47.974;21.722;2023-04-06T10:20:52;100344.91;;;2.14;96.04
71299;BME280;59083;47.974;21.722;2023-04-06T10:23:59;100333.13;;;2.18;96.23
71299;BME280;59083;47.974;21.722;2023-04-06T10:27:02;100330.62;;;2.06;96.92
71299;BME280;59083;47.974;21.722;2023-04-06T10:30:06;100331.87;;;2.02;97.50
71299;BME280;59083;47.974;21.722;2023-04-06T10:33:20;100331.16;;;2.00;96.07
71299;BME280;59083;47.974;21.722;2023-04-06T10:36:24;100338.03;;;1.82;96.10
71299;BME280;59083;47.974;21.722;2023-04-06T10:39:26;100325.69;;;1.83;96.45
71299;BME280;59083;47.974;21.722;2023-04-06T10:42:37;100320.59;;;1.81;97.86
71299;BME280;59083;47.974;21.722;2023-04-06T10:45:40;100318.50;;;1.75;98.22
71299;BME280;59083;47.974;21.722;2023-04-06T10:48:43;100314.47;;;1.71;99.27
71299;BME280;59083;47.974;21.722;2023-04-06T10:51:51;100320.91;;;1.88;98.74
71299;BME280;59083;47.974;21.722;2023-04-06T10:54:53;100317.28;;;1.79;99.02
71299;BME280;59083;47.974;21.722;2023-04-06T10:57:55;100321.47;;;1.91;98.37
71299;BME280;59083;47.974;21.722;2023-04-06T11:00:57;100309.28;;;1.90;98.37
71299;BME280;59083;47.974;21.722;2023-04-06T11:03:58;100318.66;;;1.83;97.94
71299;BME280;59083;47.974;21.722;2023-04-06T11:07:00;100312.31;;;1.76;97.46
71299;BME280;59083;47.974;21.722;2023-04-06T11:10:01;100310.78;;;1.83;97.04
71299;BME280;59083;47.974;21.722;2023-04-06T11:13:03;100305.47;;;2.14;95.83
71299;BME280;59083;47.974;21.722;2023-04-06T11:16:06;100301.87;;;2.24;95.55
71299;BME280;59083;47.974;21.722;2023-04-06T11:19:08;100298.47;;;2.43;95.20
71299;BME280;59083;47.974;21.722;2023-04-06T11:22:10;100311.06;;;2.49;94.01
71299;BME280;59083;47.974;21.722;2023-04-06T11:25:11;100303.00;;;2.41;94.58
71299;BME280;59083;47.974;21.722;2023-04-06T11:28:14;100303.88;;;2.61;96.01
71299;BME280;59083;47.974;21.722;2023-04-06T11:31:16;100293.88;;;2.64;93.50
71299;BME280;59083;47.974;21.722;2023-04-06T11:37:19;100298.03;;;2.76;93.07
71299;BME280;59083;47.974;21.722;2023-04-06T11:40:22;100295.81;;;2.62;92.11
71299;BME280;59083;47.974;21.722;2023-04-06T11:43:30;100292.22;;;2.63;93.19
71299;BME280;59083;47.974;21.722;2023-04-06T11:46:32;100290.00;;;2.68;92.20
71299;BME280;59083;47.974;21.722;2023-04-06T11:49:37;100286.56;;;2.77;92.32
71299;BME280;59083;47.974;21.722;2023-04-06T11:52:42;100286.66;;;3.05;90.83
71299;BME280;59083;47.974;21.722;2023-04-06T11:55:43;100285.28;;;3.01;91.70
71299;BME280;59083;47.974;21.722;2023-04-06T11:58:47;100284.66;;;3.26;90.79
71299;BME280;59083;47.974;21.722;2023-04-06T12:01:49;100285.78;;;3.14;90.71
71299;BME280;59083;47.974;21.722;2023-04-06T12:04:50;100274.44;;;3.04;89.68
71299;BME280;59083;47.974;21.722;2023-04-06T12:07:51;100279.62;;;2.96;90.16
71299;BME280;59083;47.974;21.722;2023-04-06T12:10:52;100275.81;;;3.08;90.50
71299;BME280;59083;47.974;21.722;2023-04-06T12:13:54;100278.03;;;3.22;89.95
71299;BME280;59083;47.974;21.722;2023-04-06T12:16:56;100270.06;;;2.95;90.60
71299;BME280;59083;47.974;21.722;2023-04-06T12:19:57;100267.81;;;3.00;90.30
71299;BME280;59083;47.974;21.722;2023-04-06T12:22:58;100271.03;;;2.84;91.48
71299;BME280;59083;47.974;21.722;2023-04-06T12:26:00;100267.03;;;2.51;92.65
71299;BME280;59083;47.974;21.722;2023-04-06T12:29:02;100276.44;;;2.82;93.23
71299;BME280;59083;47.974;21.722;2023-04-06T12:32:07;100271.16;;;2.82;93.77
71299;BME280;59083;47.974;21.722;2023-04-06T12:35:09;100263.03;;;2.66;93.58
71299;BME280;59083;47.974;21.722;2023-04-06T12:38:12;100270.63;;;2.79;93.31
71299;BME280;59083;47.974;21.722;2023-04-06T12:41:14;100265.59;;;3.05;92.47
71299;BME280;59083;47.974;21.722;2023-04-06T12:44:16;100262.16;;;2.95;91.50
71299;BME280;59083;47.974;21.722;2023-04-06T12:47:17;100258.41;;;3.07;92.68
71299;BME280;59083;47.974;21.722;2023-04-06T12:50:18;100252.66;;;3.21;90.89
71299;BME280;59083;47.974;21.722;2023-04-06T12:53:20;100247.97;;;3.15;91.32
71299;BME280;59083;47.974;21.722;2023-04-06T12:56:21;100254.84;;;3.35;90.62
71299;BME280;59083;47.974;21.722;2023-04-06T12:59:23;100252.56;;;3.50;89.54
71299;BME280;59083;47.974;21.722;2023-04-06T13:02:25;100252.09;;;3.54;88.43
71299;BME280;59083;47.974;21.722;2023-04-06T13:05:28;100244.69;;;3.95;87.85
71299;BME280;59083;47.974;21.722;2023-04-06T13:08:29;100246.75;;;3.73;89.17
71299;BME280;59083;47.974;21.722;2023-04-06T13:11:30;100243.59;;;3.70;89.70
71299;BME280;59083;47.974;21.722;2023-04-06T13:14:32;100242.16;;;3.48;88.90
71299;BME280;59083;47.974;21.722;2023-04-06T13:17:33;100255.91;;;3.05;90.66
71299;BME280;59083;47.974;21.722;2023-04-06T13:20:35;100237.22;;;2.79;92.09
71299;BME280;59083;47.974;21.722;2023-04-06T13:23:36;100236.34;;;3.08;90.65
71299;BME280;59083;47.974;21.722;2023-04-06T13:26:37;100240.06;;;3.15;91.04
71299;BME280;59083;47.974;21.722;2023-04-06T13:29:39;100233.66;;;3.27;90.06
71299;BME280;59083;47.974;21.722;2023-04-06T13:32:40;100247.03;;;2.97;89.98
71299;BME280;59083;47.974;21.722;2023-04-06T13:35:44;100242.06;;;2.94;90.01
71299;BME280;59083;47.974;21.722;2023-04-06T13:38:46;100242.75;;;2.96;90.66
71299;BME280;59083;47.974;21.722;2023-04-06T13:41:48;100232.91;;;2.98;90.29
71299;BME280;59083;47.974;21.722;2023-04-06T13:44:49;100244.31;;;2.88;89.82
71299;BME280;59083;47.974;21.722;2023-04-06T13:47:52;100237.22;;;2.79;88.77
71299;BME280;59083;47.974;21.722;2023-04-06T13:50:53;100229.91;;;2.83;91.11
71299;BME280;59083;47.974;21.722;2023-04-06T13:53:54;100236.56;;;2.77;88.91
71299;BME280;59083;47.974;21.722;2023-04-06T13:56:55;100232.66;;;2.81;89.92
71299;BME280;59083;47.974;21.722;2023-04-06T13:59:57;100229.34;;;2.79;90.32
71299;BME280;59083;47.974;21.722;2023-04-06T14:02:58;100226.84;;;2.87;91.15
71299;BME280;59083;47.974;21.722;2023-04-06T14:06:00;100241.78;;;2.97;90.14
71299;BME280;59083;47.974;21.722;2023-04-06T14:09:01;100225.41;;;3.03;90.39
71299;BME280;59083;47.974;21.722;2023-04-06T14:12:02;100228.16;;;3.11;89.80
71299;BME280;59083;47.974;21.722;2023-04-06T14:15:04;100238.16;;;2.98;90.06
71299;BME280;59083;47.974;21.722;2023-04-06T14:18:05;100230.66;;;3.03;90.20
71299;BME280;59083;47.974;21.722;2023-04-06T14:21:06;100234.88;;;2.96;91.49
71299;BME280;59083;47.974;21.722;2023-04-06T14:24:08;100230.34;;;2.69;94.14
71299;BME280;59083;47.974;21.722;2023-04-06T14:27:10;100229.34;;;2.79;93.86
71299;BME280;59083;47.974;21.722;2023-04-06T14:30:12;100231.88;;;2.71;94.44
71299;BME280;59083;47.974;21.722;2023-04-06T14:33:13;100234.34;;;2.63;94.67
71299;BME280;59083;47.974;21.722;2023-04-06T14:36:15;100240.16;;;2.57;95.05
71299;BME280;59083;47.974;21.722;2023-04-06T14:39:16;100238.13;;;2.61;94.88
71299;BME280;59083;47.974;21.722;2023-04-06T14:42:17;100230.47;;;2.58;96.04
71299;BME280;59083;47.974;21.722;2023-04-06T14:45:18;100234.78;;;2.39;95.57
71299;BME280;59083;47.974;21.722;2023-04-06T14:48:22;100239.47;;;2.17;94.75
71299;BME280;59083;47.974;21.722;2023-04-06T14:51:26;100239.94;;;2.22;95.51
71299;BME280;59083;47.974;21.722;2023-04-06T14:54:30;100260.78;;;2.14;96.37
71299;BME280;59083;47.974;21.722;2023-04-06T14:57:31;100243.22;;;2.04;94.75
71299;BME280;59083;47.974;21.722;2023-04-06T15:00:33;100245.56;;;2.07;93.98
71299;BME280;59083;47.974;21.722;2023-04-06T15:03:34;100252.06;;;2.03;94.95
71299;BME280;59083;47.974;21.722;2023-04-06T15:06:36;100253.28;;;1.99;93.36
71299;BME280;59083;47.974;21.722;2023-04-06T15:09:37;100247.22;;;2.08;92.83
71299;BME280;59083;47.974;21.722;2023-04-06T15:12:39;100246.50;;;1.87;92.39
71299;BME280;59083;47.974;21.722;2023-04-06T15:15:41;100244.56;;;1.89;93.03
71299;BME280;59083;47.974;21.722;2023-04-06T15:18:42;100240.03;;;1.91;93.25
71299;BME280;59083;47.974;21.722;2023-04-06T15:21:43;100247.47;;;1.86;94.64
71299;BME280;59083;47.974;21.722;2023-04-06T15:24:45;100240.25;;;1.69;95.84
71299;BME280;59083;47.974;21.722;2023-04-06T15:27:46;100254.06;;;1.71;95.17
71299;BME280;59083;47.974;21.722;2023-04-06T15:30:47;100241.75;;;1.62;97.32
71299;BME280;59083;47.974;21.722;2023-04-06T15:33:48;100248.91;;;1.60;96.99
71299;BME280;59083;47.974;21.722;2023-04-06T15:36:49;100237.19;;;1.64;97.35
71299;BME280;59083;47.974;21.722;2023-04-06T15:39:51;100236.78;;;1.59;99.54
71299;BME280;59083;47.974;21.722;2023-04-06T15:42:53;100229.16;;;1.65;98.49
71299;BME280;59083;47.974;21.722;2023-04-06T15:45:55;100237.03;;;1.56;99.09
71299;BME280;59083;47.974;21.722;2023-04-06T15:48:56;100229.84;;;1.58;99.40
71299;BME280;59083;47.974;21.722;2023-04-06T15:51:57;100226.16;;;1.70;99.67